createdAt,value
2023-02-25T00:20:06.273Z,12
2023-02-25T00:50:15.617Z,11
2023-02-25T01:20:24.564Z,10
2023-02-25T01:51:42.641Z,11
2023-02-25T02:51:53.228Z,10
2023-02-25T03:22:05.469Z,10
2023-02-25T03:52:10.565Z,9
2023-02-25T04:22:23.437Z,8
2023-02-25T04:52:32.210Z,8
2023-02-25T05:22:40.050Z,7
2023-02-25T05:52:46.175Z,7
2023-02-25T06:22:58.335Z,6
2023-02-25T06:53:07.769Z,6
2023-02-25T07:23:16.595Z,6
2023-02-25T08:24:41.798Z,7
2023-02-25T08:54:42.762Z,6
2023-02-25T09:24:55.389Z,6
2023-02-25T09:56:08.731Z,6
2023-02-25T10:29:38.621Z,4
2023-02-25T11:01:53.609Z,5
2023-02-25T11:34:07.197Z,4
2023-02-25T12:41:41.416Z,4
2023-02-25T13:13:46.167Z,4
2023-02-25T13:44:51.803Z,4
2023-02-25T14:50:37.756Z,4
2023-02-25T15:20:37.858Z,3
2023-02-25T15:50:46.418Z,4
2023-02-25T16:23:11.296Z,3
2023-02-25T16:53:05.870Z,3
2023-02-25T17:23:18.247Z,4
2023-02-25T18:23:37.820Z,4
2023-02-25T18:59:29.312Z,4
2023-02-25T20:04:48.031Z,4
2023-02-25T20:38:13.298Z,4
2023-02-25T21:08:09.030Z,4
2023-02-25T21:38:13.189Z,6
2023-02-25T22:08:17.972Z,4
2023-02-25T22:40:46.835Z,4
2023-02-25T23:10:45.545Z,4
2023-02-25T23:40:56.919Z,4
